sensor_id;sensor_type;location;lat;lon;timestamp;P1;durP1;ratioP1;P2;durP2;ratioP2
13999;SDS011;7075;53.574;10.054;2022-09-09T00:00:22;24.63;;;22.13;;
13999;SDS011;7075;53.574;10.054;2022-09-09T00:02:52;23.25;;;20.92;;
13999;SDS011;7075;53.574;10.054;2022-09-09T00:05:38;24.17;;;21.65;;
13999;SDS011;7075;53.574;10.054;2022-09-09T00:08:18;24.47;;;21.87;;
13999;SDS011;7075;53.574;10.054;2022-09-09T00:10:46;24.98;;;22.30;;
13999;SDS011;7075;53.574;10.054;2022-09-09T00:13:22;25.13;;;22.52;;
13999;SDS011;7075;53.574;10.054;2022-09-09T00:16:33;24.50;;;21.90;;
13999;SDS011;7075;53.574;10.054;2022-09-09T00:19:07;29.70;;;25.60;;
13999;SDS011;7075;53.574;10.054;2022-09-09T00:30:17;28.75;;;24.30;;
13999;SDS011;7075;53.574;10.054;2022-09-09T00:32:45;34.30;;;28.67;;
13999;SDS011;7075;53.574;10.054;2022-09-09T00:35:22;29.95;;;24.70;;
13999;SDS011;7075;53.574;10.054;2022-09-09T00:37:52;28.83;;;23.53;;
13999;SDS011;7075;53.574;10.054;2022-09-09T00:43:23;28.50;;;23.45;;
13999;SDS011;7075;53.574;10.054;2022-09-09T00:48:54;31.63;;;26.00;;
13999;SDS011;7075;53.574;10.054;2022-09-09T00:51:59;26.70;;;22.63;;
13999;SDS011;7075;53.574;10.054;2022-09-09T00:57:31;28.02;;;22.50;;
13999;SDS011;7075;53.574;10.054;2022-09-09T01:02:27;21.40;;;19.10;;
13999;SDS011;7075;53.574;10.054;2022-09-09T01:05:23;28.25;;;23.88;;
13999;SDS011;7075;53.574;10.054;2022-09-09T01:07:52;21.63;;;19.33;;
13999;SDS011;7075;53.574;10.054;2022-09-09T01:13:04;19.23;;;17.23;;
13999;SDS011;7075;53.574;10.054;2022-09-09T01:15:39;22.33;;;19.38;;
13999;SDS011;7075;53.574;10.054;2022-09-09T01:18:10;19.60;;;17.52;;
13999;SDS011;7075;53.574;10.054;2022-09-09T01:20:43;18.98;;;17.08;;
13999;SDS011;7075;53.574;10.054;2022-09-09T01:28:44;20.05;;;17.35;;
13999;SDS011;7075;53.574;10.054;2022-09-09T01:31:14;19.80;;;17.73;;
13999;SDS011;7075;53.574;10.054;2022-09-09T01:33:43;18.67;;;16.67;;
13999;SDS011;7075;53.574;10.054;2022-09-09T01:38:44;21.08;;;18.05;;
13999;SDS011;7075;53.574;10.054;2022-09-09T01:41:10;20.25;;;17.73;;
13999;SDS011;7075;53.574;10.054;2022-09-09T01:43:36;17.53;;;15.73;;
13999;SDS011;7075;53.574;10.054;2022-09-09T01:46:02;18.45;;;16.48;;
13999;SDS011;7075;53.574;10.054;2022-09-09T01:48:27;18.90;;;16.97;;
13999;SDS011;7075;53.574;10.054;2022-09-09T01:50:54;17.23;;;15.53;;
13999;SDS011;7075;53.574;10.054;2022-09-09T01:53:20;16.50;;;14.80;;
13999;SDS011;7075;53.574;10.054;2022-09-09T01:56:10;20.40;;;18.20;;
13999;SDS011;7075;53.574;10.054;2022-09-09T02:01:57;19.75;;;17.23;;
13999;SDS011;7075;53.574;10.054;2022-09-09T02:04:40;22.33;;;18.95;;
13999;SDS011;7075;53.574;10.054;2022-09-09T02:07:11;26.40;;;21.67;;
13999;SDS011;7075;53.574;10.054;2022-09-09T02:09:43;21.25;;;18.73;;
13999;SDS011;7075;53.574;10.054;2022-09-09T02:12:14;20.70;;;17.85;;
13999;SDS011;7075;53.574;10.054;2022-09-09T02:14:46;21.83;;;17.75;;
13999;SDS011;7075;53.574;10.054;2022-09-09T02:17:19;21.75;;;19.17;;
13999;SDS011;7075;53.574;10.054;2022-09-09T02:19:53;21.27;;;18.40;;
13999;SDS011;7075;53.574;10.054;2022-09-09T02:22:25;22.67;;;19.35;;
13999;SDS011;7075;53.574;10.054;2022-09-09T02:24:52;18.15;;;15.98;;
13999;SDS011;7075;53.574;10.054;2022-09-09T02:27:22;20.73;;;17.65;;
13999;SDS011;7075;53.574;10.054;2022-09-09T02:29:48;18.42;;;16.40;;
13999;SDS011;7075;53.574;10.054;2022-09-09T02:32:20;24.67;;;20.57;;
13999;SDS011;7075;53.574;10.054;2022-09-09T02:34:53;24.48;;;20.85;;
13999;SDS011;7075;53.574;10.054;2022-09-09T02:37:23;19.63;;;17.58;;
13999;SDS011;7075;53.574;10.054;2022-09-09T02:39:53;20.95;;;18.73;;
13999;SDS011;7075;53.574;10.054;2022-09-09T02:42:19;18.97;;;16.97;;
13999;SDS011;7075;53.574;10.054;2022-09-09T02:44:45;17.30;;;15.47;;
13999;SDS011;7075;53.574;10.054;2022-09-09T02:50:28;16.88;;;15.05;;
13999;SDS011;7075;53.574;10.054;2022-09-09T02:55:32;15.88;;;14.07;;
13999;SDS011;7075;53.574;10.054;2022-09-09T02:58:01;17.10;;;15.25;;
13999;SDS011;7075;53.574;10.054;2022-09-09T03:00:32;16.50;;;14.80;;
13999;SDS011;7075;53.574;10.054;2022-09-09T03:02:58;18.30;;;16.33;;
13999;SDS011;7075;53.574;10.054;2022-09-09T03:05:24;17.17;;;15.10;;
13999;SDS011;7075;53.574;10.054;2022-09-09T03:07:51;18.15;;;16.25;;
13999;SDS011;7075;53.574;10.054;2022-09-09T03:10:17;15.47;;;13.87;;
13999;SDS011;7075;53.574;10.054;2022-09-09T03:12:43;13.73;;;12.33;;
13999;SDS011;7075;53.574;10.054;2022-09-09T03:15:09;17.05;;;15.25;;
13999;SDS011;7075;53.574;10.054;2022-09-09T03:17:35;16.00;;;14.32;;
13999;SDS011;7075;53.574;10.054;2022-09-09T03:20:04;18.00;;;16.10;;
13999;SDS011;7075;53.574;10.054;2022-09-09T03:22:30;15.65;;;14.05;;
13999;SDS011;7075;53.574;10.054;2022-09-09T03:24:56;13.20;;;11.90;;
13999;SDS011;7075;53.574;10.054;2022-09-09T03:27:22;14.77;;;13.27;;
13999;SDS011;7075;53.574;10.054;2022-09-09T03:29:47;13.82;;;12.43;;
13999;SDS011;7075;53.574;10.054;2022-09-09T03:32:16;13.25;;;11.95;;
13999;SDS011;7075;53.574;10.054;2022-09-09T03:34:42;13.82;;;12.48;;
13999;SDS011;7075;53.574;10.054;2022-09-09T03:37:08;12.82;;;11.60;;
13999;SDS011;7075;53.574;10.054;2022-09-09T03:39:34;12.80;;;11.60;;
13999;SDS011;7075;53.574;10.054;2022-09-09T03:42:00;11.70;;;10.68;;
13999;SDS011;7075;53.574;10.054;2022-09-09T03:44:29;12.85;;;11.57;;
13999;SDS011;7075;53.574;10.054;2022-09-09T03:46:55;15.30;;;13.77;;
13999;SDS011;7075;53.574;10.054;2022-09-09T03:49:21;13.43;;;12.20;;
13999;SDS011;7075;53.574;10.054;2022-09-09T03:51:47;16.33;;;14.63;;
13999;SDS011;7075;53.574;10.054;2022-09-09T03:54:13;15.48;;;13.98;;
13999;SDS011;7075;53.574;10.054;2022-09-09T03:56:38;12.50;;;11.30;;
13999;SDS011;7075;53.574;10.054;2022-09-09T03:59:06;12.43;;;11.23;;
13999;SDS011;7075;53.574;10.054;2022-09-09T04:01:33;14.98;;;13.57;;
13999;SDS011;7075;53.574;10.054;2022-09-09T04:03:59;13.57;;;12.27;;
13999;SDS011;7075;53.574;10.054;2022-09-09T04:06:25;13.63;;;12.30;;
13999;SDS011;7075;53.574;10.054;2022-09-09T04:08:50;14.30;;;12.85;;
13999;SDS011;7075;53.574;10.054;2022-09-09T04:11:17;13.40;;;12.10;;
13999;SDS011;7075;53.574;10.054;2022-09-09T04:13:43;13.25;;;11.95;;
13999;SDS011;7075;53.574;10.054;2022-09-09T04:16:09;15.63;;;13.87;;
13999;SDS011;7075;53.574;10.054;2022-09-09T04:18:36;13.97;;;12.57;;
13999;SDS011;7075;53.574;10.054;2022-09-09T04:21:02;13.37;;;12.07;;
13999;SDS011;7075;53.574;10.054;2022-09-09T04:23:29;12.48;;;11.10;;
13999;SDS011;7075;53.574;10.054;2022-09-09T04:25:55;14.27;;;12.87;;
13999;SDS011;7075;53.574;10.054;2022-09-09T04:28:23;14.32;;;12.77;;
13999;SDS011;7075;53.574;10.054;2022-09-09T04:30:50;12.32;;;11.13;;
13999;SDS011;7075;53.574;10.054;2022-09-09T04:33:17;13.32;;;11.95;;
13999;SDS011;7075;53.574;10.054;2022-09-09T04:35:44;13.73;;;12.35;;
13999;SDS011;7075;53.574;10.054;2022-09-09T04:38:13;13.18;;;11.88;;
13999;SDS011;7075;53.574;10.054;2022-09-09T04:40:41;14.00;;;12.60;;
13999;SDS011;7075;53.574;10.054;2022-09-09T04:43:08;12.93;;;11.63;;
13999;SDS011;7075;53.574;10.054;2022-09-09T04:45:34;12.27;;;11.07;;
13999;SDS011;7075;53.574;10.054;2022-09-09T04:48:00;11.23;;;10.23;;
13999;SDS011;7075;53.574;10.054;2022-09-09T04:50:27;11.73;;;10.63;;
13999;SDS011;7075;53.574;10.054;2022-09-09T04:52:53;12.18;;;11.05;;
13999;SDS011;7075;53.574;10.054;2022-09-09T04:55:19;12.85;;;11.55;;
13999;SDS011;7075;53.574;10.054;2022-09-09T04:57:45;10.68;;;9.60;;
13999;SDS011;7075;53.574;10.054;2022-09-09T05:00:10;10.90;;;9.80;;
13999;SDS011;7075;53.574;10.054;2022-09-09T05:02:37;11.20;;;10.10;;
13999;SDS011;7075;53.574;10.054;2022-09-09T05:05:03;12.48;;;11.27;;
13999;SDS011;7075;53.574;10.054;2022-09-09T05:07:29;11.57;;;10.48;;
13999;SDS011;7075;53.574;10.054;2022-09-09T05:09:56;10.95;;;9.85;;
13999;SDS011;7075;53.574;10.054;2022-09-09T05:12:22;9.93;;;8.93;;
13999;SDS011;7075;53.574;10.054;2022-09-09T05:14:49;11.13;;;9.23;;
13999;SDS011;7075;53.574;10.054;2022-09-09T05:17:15;11.20;;;10.10;;
13999;SDS011;7075;53.574;10.054;2022-09-09T05:19:41;10.15;;;9.18;;
13999;SDS011;7075;53.574;10.054;2022-09-09T05:22:08;10.98;;;9.85;;
13999;SDS011;7075;53.574;10.054;2022-09-09T05:24:33;11.13;;;9.98;;
13999;SDS011;7075;53.574;10.054;2022-09-09T05:26:59;10.93;;;9.83;;
13999;SDS011;7075;53.574;10.054;2022-09-09T05:29:26;9.70;;;8.80;;
13999;SDS011;7075;53.574;10.054;2022-09-09T05:31:52;10.07;;;9.17;;
13999;SDS011;7075;53.574;10.054;2022-09-09T05:34:18;10.50;;;9.37;;
13999;SDS011;7075;53.574;10.054;2022-09-09T05:36:44;9.15;;;8.30;;
13999;SDS011;7075;53.574;10.054;2022-09-09T05:39:09;10.40;;;9.40;;
13999;SDS011;7075;53.574;10.054;2022-09-09T05:41:38;11.07;;;10.05;;
13999;SDS011;7075;53.574;10.054;2022-09-09T05:44:04;10.38;;;9.27;;
13999;SDS011;7075;53.574;10.054;2022-09-09T05:46:31;9.15;;;8.35;;
13999;SDS011;7075;53.574;10.054;2022-09-09T05:48:56;9.93;;;9.02;;
13999;SDS011;7075;53.574;10.054;2022-09-09T05:51:24;9.55;;;8.65;;
13999;SDS011;7075;53.574;10.054;2022-09-09T05:53:51;11.57;;;10.30;;
13999;SDS011;7075;53.574;10.054;2022-09-09T05:56:18;9.93;;;8.93;;
13999;SDS011;7075;53.574;10.054;2022-09-09T05:58:47;11.15;;;9.95;;
13999;SDS011;7075;53.574;10.054;2022-09-09T06:01:15;11.70;;;10.43;;
13999;SDS011;7075;53.574;10.054;2022-09-09T06:03:46;11.30;;;10.10;;
13999;SDS011;7075;53.574;10.054;2022-09-09T06:06:14;10.88;;;9.70;;
13999;SDS011;7075;53.574;10.054;2022-09-09T06:08:45;9.05;;;8.15;;
13999;SDS011;7075;53.574;10.054;2022-09-09T06:13:38;9.40;;;8.50;;
13999;SDS011;7075;53.574;10.054;2022-09-09T06:16:14;11.10;;;8.35;;
13999;SDS011;7075;53.574;10.054;2022-09-09T06:18:41;8.00;;;7.10;;
13999;SDS011;7075;53.574;10.054;2022-09-09T06:21:21;8.27;;;7.35;;
13999;SDS011;7075;53.574;10.054;2022-09-09T06:23:48;9.38;;;8.38;;
13999;SDS011;7075;53.574;10.054;2022-09-09T06:28:49;9.13;;;7.80;;
13999;SDS011;7075;53.574;10.054;2022-09-09T06:31:18;11.75;;;7.90;;
13999;SDS011;7075;53.574;10.054;2022-09-09T06:33:49;9.48;;;7.15;;
13999;SDS011;7075;53.574;10.054;2022-09-09T06:36:20;9.07;;;6.82;;
13999;SDS011;7075;53.574;10.054;2022-09-09T06:38:50;10.07;;;7.55;;
13999;SDS011;7075;53.574;10.054;2022-09-09T06:41:16;7.20;;;6.30;;
13999;SDS011;7075;53.574;10.054;2022-09-09T06:43:44;7.45;;;6.53;;
13999;SDS011;7075;53.574;10.054;2022-09-09T06:46:29;8.23;;;6.95;;
13999;SDS011;7075;53.574;10.054;2022-09-09T06:48:57;9.32;;;6.90;;
13999;SDS011;7075;53.574;10.054;2022-09-09T06:51:24;6.30;;;5.72;;
13999;SDS011;7075;53.574;10.054;2022-09-09T06:53:52;9.95;;;6.60;;
13999;SDS011;7075;53.574;10.054;2022-09-09T06:56:29;8.02;;;5.30;;
13999;SDS011;7075;53.574;10.054;2022-09-09T06:58:58;6.60;;;5.22;;
13999;SDS011;7075;53.574;10.054;2022-09-09T07:01:29;4.47;;;4.05;;
13999;SDS011;7075;53.574;10.054;2022-09-09T07:03:57;4.50;;;4.10;;
13999;SDS011;7075;53.574;10.054;2022-09-09T07:06:25;4.18;;;3.78;;
13999;SDS011;7075;53.574;10.054;2022-09-09T07:08:53;5.30;;;4.57;;
13999;SDS011;7075;53.574;10.054;2022-09-09T07:11:20;7.33;;;4.97;;
13999;SDS011;7075;53.574;10.054;2022-09-09T07:13:47;7.03;;;4.75;;
13999;SDS011;7075;53.574;10.054;2022-09-09T07:16:16;6.25;;;4.15;;
13999;SDS011;7075;53.574;10.054;2022-09-09T07:18:44;6.70;;;5.00;;
13999;SDS011;7075;53.574;10.054;2022-09-09T07:21:10;7.90;;;4.77;;
13999;SDS011;7075;53.574;10.054;2022-09-09T07:23:37;6.85;;;4.70;;
13999;SDS011;7075;53.574;10.054;2022-09-09T07:26:13;7.85;;;4.70;;
13999;SDS011;7075;53.574;10.054;2022-09-09T07:28:41;6.88;;;4.60;;
13999;SDS011;7075;53.574;10.054;2022-09-09T07:31:12;4.75;;;4.28;;
13999;SDS011;7075;53.574;10.054;2022-09-09T07:33:43;4.95;;;4.03;;
13999;SDS011;7075;53.574;10.054;2022-09-09T07:36:13;6.63;;;4.60;;
13999;SDS011;7075;53.574;10.054;2022-09-09T07:38:55;4.05;;;3.47;;
13999;SDS011;7075;53.574;10.054;2022-09-09T07:41:26;3.97;;;3.10;;
13999;SDS011;7075;53.574;10.054;2022-09-09T07:43:53;4.10;;;3.50;;
13999;SDS011;7075;53.574;10.054;2022-09-09T07:46:19;4.75;;;4.20;;
13999;SDS011;7075;53.574;10.054;2022-09-09T07:48:51;6.10;;;4.22;;
13999;SDS011;7075;53.574;10.054;2022-09-09T07:51:26;5.72;;;4.03;;
13999;SDS011;7075;53.574;10.054;2022-09-09T07:53:55;5.13;;;4.07;;
13999;SDS011;7075;53.574;10.054;2022-09-09T07:56:27;4.35;;;3.30;;
13999;SDS011;7075;53.574;10.054;2022-09-09T07:58:54;3.23;;;2.87;;
13999;SDS011;7075;53.574;10.054;2022-09-09T08:01:22;8.65;;;4.28;;
13999;SDS011;7075;53.574;10.054;2022-09-09T08:03:59;6.47;;;3.70;;
13999;SDS011;7075;53.574;10.054;2022-09-09T08:06:27;7.70;;;4.15;;
13999;SDS011;7075;53.574;10.054;2022-09-09T08:08:54;5.37;;;3.60;;
13999;SDS011;7075;53.574;10.054;2022-09-09T08:11:20;8.00;;;4.28;;
13999;SDS011;7075;53.574;10.054;2022-09-09T08:13:48;4.95;;;3.65;;
13999;SDS011;7075;53.574;10.054;2022-09-09T08:16:24;5.50;;;4.37;;
13999;SDS011;7075;53.574;10.054;2022-09-09T08:18:52;4.88;;;3.63;;
13999;SDS011;7075;53.574;10.054;2022-09-09T08:21:20;6.00;;;4.38;;
13999;SDS011;7075;53.574;10.054;2022-09-09T08:23:49;3.97;;;3.55;;
13999;SDS011;7075;53.574;10.054;2022-09-09T08:26:26;5.75;;;3.97;;
13999;SDS011;7075;53.574;10.054;2022-09-09T08:28:54;4.00;;;3.00;;
13999;SDS011;7075;53.574;10.054;2022-09-09T08:33:49;3.35;;;2.72;;
13999;SDS011;7075;53.574;10.054;2022-09-09T08:36:16;5.38;;;3.55;;
13999;SDS011;7075;53.574;10.054;2022-09-09T08:38:43;3.70;;;3.20;;
13999;SDS011;7075;53.574;10.054;2022-09-09T08:52:19;5.82;;;3.90;;
13999;SDS011;7075;53.574;10.054;2022-09-09T08:54:50;2.75;;;2.40;;
13999;SDS011;7075;53.574;10.054;2022-09-09T08:57:21;4.15;;;3.28;;
13999;SDS011;7075;53.574;10.054;2022-09-09T08:59:52;7.18;;;3.50;;
13999;SDS011;7075;53.574;10.054;2022-09-09T09:02:32;7.22;;;3.92;;
13999;SDS011;7075;53.574;10.054;2022-09-09T09:05:19;4.07;;;3.03;;
13999;SDS011;7075;53.574;10.054;2022-09-09T09:10:51;4.80;;;2.80;;
13999;SDS011;7075;53.574;10.054;2022-09-09T09:18:47;2.47;;;2.28;;
13999;SDS011;7075;53.574;10.054;2022-09-09T09:21:16;5.97;;;2.90;;
13999;SDS011;7075;53.574;10.054;2022-09-09T09:23:59;3.85;;;2.50;;
13999;SDS011;7075;53.574;10.054;2022-09-09T09:26:44;5.20;;;3.15;;
13999;SDS011;7075;53.574;10.054;2022-09-09T09:29:11;3.92;;;2.50;;
13999;SDS011;7075;53.574;10.054;2022-09-09T09:31:48;7.45;;;3.00;;
13999;SDS011;7075;53.574;10.054;2022-09-09T09:34:19;3.53;;;2.10;;
13999;SDS011;7075;53.574;10.054;2022-09-09T09:36:46;4.30;;;2.20;;
13999;SDS011;7075;53.574;10.054;2022-09-09T09:39:30;5.57;;;3.00;;
13999;SDS011;7075;53.574;10.054;2022-09-09T09:42:07;5.22;;;2.28;;
13999;SDS011;7075;53.574;10.054;2022-09-09T09:44:39;3.28;;;1.92;;
13999;SDS011;7075;53.574;10.054;2022-09-09T09:49:38;3.10;;;2.30;;
13999;SDS011;7075;53.574;10.054;2022-09-09T09:52:04;4.13;;;2.55;;
13999;SDS011;7075;53.574;10.054;2022-09-09T09:54:41;3.72;;;2.25;;
13999;SDS011;7075;53.574;10.054;2022-09-09T09:57:11;5.40;;;3.00;;
13999;SDS011;7075;53.574;10.054;2022-09-09T09:59:38;4.03;;;2.07;;
13999;SDS011;7075;53.574;10.054;2022-09-09T10:05:01;3.65;;;1.90;;
13999;SDS011;7075;53.574;10.054;2022-09-09T10:10:45;5.72;;;2.25;;
13999;SDS011;7075;53.574;10.054;2022-09-09T10:16:14;3.60;;;2.10;;
13999;SDS011;7075;53.574;10.054;2022-09-09T10:18:50;3.50;;;1.65;;
13999;SDS011;7075;53.574;10.054;2022-09-09T10:29:56;2.80;;;1.40;;
13999;SDS011;7075;53.574;10.054;2022-09-09T10:32:45;3.75;;;1.60;;
13999;SDS011;7075;53.574;10.054;2022-09-09T10:35:35;2.30;;;1.33;;
13999;SDS011;7075;53.574;10.054;2022-09-09T10:38:18;2.83;;;1.38;;
13999;SDS011;7075;53.574;10.054;2022-09-09T10:54:02;1.95;;;1.10;;
13999;SDS011;7075;53.574;10.054;2022-09-09T10:56:34;2.72;;;1.40;;
13999;SDS011;7075;53.574;10.054;2022-09-09T10:59:02;3.28;;;1.30;;
13999;SDS011;7075;53.574;10.054;2022-09-09T11:01:45;2.63;;;1.20;;
13999;SDS011;7075;53.574;10.054;2022-09-09T11:04:38;4.00;;;1.30;;
13999;SDS011;7075;53.574;10.054;2022-09-09T11:07:12;2.53;;;1.20;;
13999;SDS011;7075;53.574;10.054;2022-09-09T11:09:43;1.88;;;0.80;;
13999;SDS011;7075;53.574;10.054;2022-09-09T11:12:16;4.18;;;1.42;;
13999;SDS011;7075;53.574;10.054;2022-09-09T11:14:54;3.25;;;1.20;;
13999;SDS011;7075;53.574;10.054;2022-09-09T11:17:28;2.05;;;1.00;;
13999;SDS011;7075;53.574;10.054;2022-09-09T11:20:01;2.60;;;1.43;;
13999;SDS011;7075;53.574;10.054;2022-09-09T11:22:29;2.10;;;1.17;;
13999;SDS011;7075;53.574;10.054;2022-09-09T11:25:05;1.98;;;0.90;;
13999;SDS011;7075;53.574;10.054;2022-09-09T11:30:54;3.40;;;1.27;;
13999;SDS011;7075;53.574;10.054;2022-09-09T11:36:38;2.92;;;1.50;;
13999;SDS011;7075;53.574;10.054;2022-09-09T11:39:27;2.70;;;0.98;;
13999;SDS011;7075;53.574;10.054;2022-09-09T11:42:20;3.88;;;1.67;;
13999;SDS011;7075;53.574;10.054;2022-09-09T11:44:48;2.55;;;1.23;;
13999;SDS011;7075;53.574;10.054;2022-09-09T11:49:54;2.00;;;1.08;;
13999;SDS011;7075;53.574;10.054;2022-09-09T11:52:40;2.57;;;1.10;;
13999;SDS011;7075;53.574;10.054;2022-09-09T11:55:19;2.33;;;1.10;;
13999;SDS011;7075;53.574;10.054;2022-09-09T11:57:58;2.38;;;1.13;;
13999;SDS011;7075;53.574;10.054;2022-09-09T12:00:35;2.22;;;1.27;;
13999;SDS011;7075;53.574;10.054;2022-09-09T12:03:04;3.78;;;1.58;;
13999;SDS011;7075;53.574;10.054;2022-09-09T12:05:38;2.22;;;1.25;;
13999;SDS011;7075;53.574;10.054;2022-09-09T12:08:09;3.47;;;1.50;;
13999;SDS011;7075;53.574;10.054;2022-09-09T12:10:39;2.55;;;1.10;;
13999;SDS011;7075;53.574;10.054;2022-09-09T12:13:15;1.77;;;0.90;;
13999;SDS011;7075;53.574;10.054;2022-09-09T12:15:48;3.08;;;1.48;;
13999;SDS011;7075;53.574;10.054;2022-09-09T12:20:58;3.30;;;1.30;;
13999;SDS011;7075;53.574;10.054;2022-09-09T12:29:17;2.95;;;1.30;;
13999;SDS011;7075;53.574;10.054;2022-09-09T12:31:58;2.13;;;0.97;;
13999;SDS011;7075;53.574;10.054;2022-09-09T12:36:59;3.05;;;1.00;;
13999;SDS011;7075;53.574;10.054;2022-09-09T12:39:32;4.63;;;1.67;;
13999;SDS011;7075;53.574;10.054;2022-09-09T12:42:02;4.07;;;1.45;;
13999;SDS011;7075;53.574;10.054;2022-09-09T12:44:29;3.10;;;1.27;;
13999;SDS011;7075;53.574;10.054;2022-09-09T12:46:56;2.65;;;1.25;;
13999;SDS011;7075;53.574;10.054;2022-09-09T12:51:59;2.72;;;1.40;;
13999;SDS011;7075;53.574;10.054;2022-09-09T12:54:27;3.13;;;1.20;;
13999;SDS011;7075;53.574;10.054;2022-09-09T12:56:53;4.38;;;1.48;;
13999;SDS011;7075;53.574;10.054;2022-09-09T12:59:23;2.97;;;1.60;;
13999;SDS011;7075;53.574;10.054;2022-09-09T13:01:57;3.63;;;1.60;;
13999;SDS011;7075;53.574;10.054;2022-09-09T13:04:24;3.33;;;1.50;;
13999;SDS011;7075;53.574;10.054;2022-09-09T13:06:49;4.67;;;1.73;;
13999;SDS011;7075;53.574;10.054;2022-09-09T13:09:17;2.00;;;1.40;;
13999;SDS011;7075;53.574;10.054;2022-09-09T13:11:44;3.28;;;1.60;;
13999;SDS011;7075;53.574;10.054;2022-09-09T13:14:18;5.13;;;1.60;;
13999;SDS011;7075;53.574;10.054;2022-09-09T13:16:55;4.60;;;1.80;;
13999;SDS011;7075;53.574;10.054;2022-09-09T13:19:25;4.97;;;1.60;;
13999;SDS011;7075;53.574;10.054;2022-09-09T13:21:53;4.00;;;1.93;;
13999;SDS011;7075;53.574;10.054;2022-09-09T13:27:00;2.58;;;1.63;;
13999;SDS011;7075;53.574;10.054;2022-09-09T13:29:29;4.30;;;1.70;;
13999;SDS011;7075;53.574;10.054;2022-09-09T13:32:03;4.78;;;2.08;;
13999;SDS011;7075;53.574;10.054;2022-09-09T13:34:32;2.63;;;1.35;;
13999;SDS011;7075;53.574;10.054;2022-09-09T13:37:05;5.50;;;1.90;;
13999;SDS011;7075;53.574;10.054;2022-09-09T13:39:35;4.05;;;1.88;;
13999;SDS011;7075;53.574;10.054;2022-09-09T13:42:02;3.78;;;2.17;;
13999;SDS011;7075;53.574;10.054;2022-09-09T13:44:30;7.25;;;2.75;;
13999;SDS011;7075;53.574;10.054;2022-09-09T13:49:43;5.25;;;2.20;;
13999;SDS011;7075;53.574;10.054;2022-09-09T13:52:14;5.03;;;2.20;;
13999;SDS011;7075;53.574;10.054;2022-09-09T13:54:49;4.07;;;2.40;;
13999;SDS011;7075;53.574;10.054;2022-09-09T13:57:20;5.65;;;2.30;;
13999;SDS011;7075;53.574;10.054;2022-09-09T13:59:50;4.35;;;2.28;;
13999;SDS011;7075;53.574;10.054;2022-09-09T14:02:18;5.70;;;2.50;;
13999;SDS011;7075;53.574;10.054;2022-09-09T14:04:43;4.00;;;2.42;;
13999;SDS011;7075;53.574;10.054;2022-09-09T14:07:13;3.75;;;2.30;;
13999;SDS011;7075;53.574;10.054;2022-09-09T14:09:40;3.50;;;2.38;;
13999;SDS011;7075;53.574;10.054;2022-09-09T14:12:10;5.28;;;2.50;;
13999;SDS011;7075;53.574;10.054;2022-09-09T14:14:36;3.90;;;2.20;;
13999;SDS011;7075;53.574;10.054;2022-09-09T14:17:03;5.07;;;2.72;;
13999;SDS011;7075;53.574;10.054;2022-09-09T14:19:29;3.53;;;1.98;;
13999;SDS011;7075;53.574;10.054;2022-09-09T14:21:56;5.93;;;2.75;;
13999;SDS011;7075;53.574;10.054;2022-09-09T14:24:22;4.90;;;2.45;;
13999;SDS011;7075;53.574;10.054;2022-09-09T14:26:48;4.40;;;2.92;;
13999;SDS011;7075;53.574;10.054;2022-09-09T14:29:13;5.90;;;3.13;;
13999;SDS011;7075;53.574;10.054;2022-09-09T14:31:39;4.80;;;2.60;;
13999;SDS011;7075;53.574;10.054;2022-09-09T14:34:04;5.43;;;2.20;;
13999;SDS011;7075;53.574;10.054;2022-09-09T14:36:31;3.63;;;1.70;;
13999;SDS011;7075;53.574;10.054;2022-09-09T14:38:57;5.10;;;1.70;;
13999;SDS011;7075;53.574;10.054;2022-09-09T14:41:23;2.58;;;1.40;;
13999;SDS011;7075;53.574;10.054;2022-09-09T14:43:50;2.30;;;1.35;;
13999;SDS011;7075;53.574;10.054;2022-09-09T14:46:17;2.17;;;1.13;;
13999;SDS011;7075;53.574;10.054;2022-09-09T14:48:44;2.58;;;1.17;;
13999;SDS011;7075;53.574;10.054;2022-09-09T14:51:22;3.03;;;1.42;;
13999;SDS011;7075;53.574;10.054;2022-09-09T14:53:51;2.78;;;1.40;;
13999;SDS011;7075;53.574;10.054;2022-09-09T14:56:19;3.00;;;1.42;;
13999;SDS011;7075;53.574;10.054;2022-09-09T14:58:49;3.10;;;1.40;;
13999;SDS011;7075;53.574;10.054;2022-09-09T15:01:16;4.43;;;1.70;;
13999;SDS011;7075;53.574;10.054;2022-09-09T15:03:47;3.03;;;1.70;;
13999;SDS011;7075;53.574;10.054;2022-09-09T15:06:18;5.72;;;3.20;;
13999;SDS011;7075;53.574;10.054;2022-09-09T15:08:45;6.25;;;4.65;;
13999;SDS011;7075;53.574;10.054;2022-09-09T15:11:12;7.73;;;4.67;;
13999;SDS011;7075;53.574;10.054;2022-09-09T15:13:40;7.03;;;4.17;;
13999;SDS011;7075;53.574;10.054;2022-09-09T15:16:08;8.45;;;5.18;;
13999;SDS011;7075;53.574;10.054;2022-09-09T15:18:34;6.45;;;4.13;;
13999;SDS011;7075;53.574;10.054;2022-09-09T15:21:01;5.53;;;3.28;;
13999;SDS011;7075;53.574;10.054;2022-09-09T15:23:31;4.65;;;2.15;;
13999;SDS011;7075;53.574;10.054;2022-09-09T15:25:57;3.35;;;2.03;;
13999;SDS011;7075;53.574;10.054;2022-09-09T15:28:23;4.28;;;1.88;;
13999;SDS011;7075;53.574;10.054;2022-09-09T15:30:49;5.03;;;1.70;;
13999;SDS011;7075;53.574;10.054;2022-09-09T15:33:16;3.35;;;1.65;;
13999;SDS011;7075;53.574;10.054;2022-09-09T15:35:42;3.35;;;1.50;;
13999;SDS011;7075;53.574;10.054;2022-09-09T15:38:08;5.15;;;1.88;;
13999;SDS011;7075;53.574;10.054;2022-09-09T15:40:34;3.47;;;1.90;;
13999;SDS011;7075;53.574;10.054;2022-09-09T15:43:00;4.80;;;2.40;;
13999;SDS011;7075;53.574;10.054;2022-09-09T15:45:28;3.27;;;2.10;;
13999;SDS011;7075;53.574;10.054;2022-09-09T15:47:57;3.45;;;1.70;;
13999;SDS011;7075;53.574;10.054;2022-09-09T15:50:23;3.33;;;1.60;;
13999;SDS011;7075;53.574;10.054;2022-09-09T15:52:48;3.67;;;1.70;;
13999;SDS011;7075;53.574;10.054;2022-09-09T15:55:14;3.67;;;1.40;;
13999;SDS011;7075;53.574;10.054;2022-09-09T15:57:40;4.93;;;2.00;;
13999;SDS011;7075;53.574;10.054;2022-09-09T16:00:05;4.07;;;1.90;;
13999;SDS011;7075;53.574;10.054;2022-09-09T16:02:32;3.60;;;1.60;;
13999;SDS011;7075;53.574;10.054;2022-09-09T16:04:58;3.85;;;1.58;;
13999;SDS011;7075;53.574;10.054;2022-09-09T16:07:23;3.90;;;1.80;;
13999;SDS011;7075;53.574;10.054;2022-09-09T16:09:49;4.00;;;1.40;;
13999;SDS011;7075;53.574;10.054;2022-09-09T16:12:17;2.50;;;1.35;;
13999;SDS011;7075;53.574;10.054;2022-09-09T16:14:43;2.90;;;1.60;;
13999;SDS011;7075;53.574;10.054;2022-09-09T16:17:10;2.45;;;1.55;;
13999;SDS011;7075;53.574;10.054;2022-09-09T16:19:37;1.95;;;1.30;;
13999;SDS011;7075;53.574;10.054;2022-09-09T16:22:03;2.70;;;1.30;;
13999;SDS011;7075;53.574;10.054;2022-09-09T16:24:29;3.13;;;1.52;;
13999;SDS011;7075;53.574;10.054;2022-09-09T16:26:55;2.83;;;1.70;;
13999;SDS011;7075;53.574;10.054;2022-09-09T16:29:21;3.77;;;1.77;;
13999;SDS011;7075;53.574;10.054;2022-09-09T16:31:48;2.13;;;1.42;;
13999;SDS011;7075;53.574;10.054;2022-09-09T16:34:15;3.40;;;1.30;;
13999;SDS011;7075;53.574;10.054;2022-09-09T16:36:42;2.05;;;1.20;;
13999;SDS011;7075;53.574;10.054;2022-09-09T16:39:09;2.42;;;1.33;;
13999;SDS011;7075;53.574;10.054;2022-09-09T16:41:37;2.33;;;1.25;;
13999;SDS011;7075;53.574;10.054;2022-09-09T16:44:05;2.28;;;1.02;;
13999;SDS011;7075;53.574;10.054;2022-09-09T16:46:35;3.55;;;1.35;;
13999;SDS011;7075;53.574;10.054;2022-09-09T16:49:06;2.25;;;1.20;;
13999;SDS011;7075;53.574;10.054;2022-09-09T16:51:34;2.57;;;1.40;;
13999;SDS011;7075;53.574;10.054;2022-09-09T16:54:03;5.82;;;1.20;;
13999;SDS011;7075;53.574;10.054;2022-09-09T16:56:31;2.40;;;1.27;;
13999;SDS011;7075;53.574;10.054;2022-09-09T16:58:59;2.53;;;1.40;;
13999;SDS011;7075;53.574;10.054;2022-09-09T17:01:27;2.58;;;1.30;;